Latest Weather Observations for Urandangi

IDQ60801

Issued at 8:32 am EST Friday 29 May 2015 (issued every 30 minutes, with the page automatically refreshed every 10 minutes)

About weather observations | Map of weather stations | Latest weather observations for QLD | Other Formats
Station Details ID: 037058 Name: URANDANGI AERODROME Lat: -21.60 Lon: 138.37 Height: 178.6 m
Data from the previous 72 hours. | See also: Recent months at Urandangi
Date/Time
EST
Temp
°C
App
Temp
°C
Dew
Point
Rel
Hum
%
Delta-T
°C
Wind Press
QNH
hPa
Press
MSL
hPa
Rain
since 9 am
mm
Dir
 
Spd
km/h
Gust
km/h
Spd
kts
Gust
kts
29/08:30am 18.8 17.5 6.0 43 6.4 ESE 2 6 1 3 1019.0 1018.5 0.0
29/08:00am 15.4 13.0 4.2 47 5.2 ESE 6 6 3 3 1018.7 1018.2 0.0
29/07:30am 13.7 11.2 4.0 52 4.5 ESE 6 6 3 3 1018.4 1017.8 0.0
29/07:00am 13.2 11.0 3.3 51 4.5 SE 4 6 2 3 1018.4 1017.8 0.0
29/06:30am 13.8 11.7 4.1 52 4.5 SE 4 6 2 3 1018.2 1017.6 0.0
29/06:00am 14.2 12.2 4.5 52 4.5 SSE 4 6 2 3 1018.0 1017.4 0.0
29/05:30am 14.3 11.4 4.6 52 4.5 S 9 11 5 6 1017.9 1017.3 0.0
29/05:00am 14.3 11.4 4.6 52 4.5 SSE 9 9 5 5 1017.5 1017.0 0.0
29/04:30am 14.4 11.8 3.2 47 5.1 SE 6 6 3 3 1017.2 1016.7 0.0
29/04:00am 14.7 11.9 2.9 45 5.3 ESE 7 13 4 7 1017.2 1016.7 0.0
29/03:30am 15.9 13.6 4.6 47 5.4 E 6 7 3 4 1017.0 1016.5 0.0
29/03:00am 15.6 13.0 4.3 47 5.3 SSE 7 7 4 4 1017.1 1016.6 0.0
29/02:30am 16.1 14.0 3.9 44 5.7 SE 4 6 2 3 1017.2 1016.7 0.0
29/02:00am 16.6 14.7 4.9 46 5.6 SE 4 6 2 3 1017.4 1016.9 0.0
29/01:30am 16.5 13.3 4.9 46 5.6 SSE 11 11 6 6 1017.6 1017.1 0.0
29/01:00am 17.2 14.7 3.8 41 6.3 ESE 6 6 3 3 1017.6 1017.1 0.0
29/12:30am 17.8 15.1 5.4 44 6.1 SE 9 11 5 6 1017.9 1017.3 0.0
29/12:00am 18.1 15.7 5.3 43 6.2 ESE 7 9 4 5 1018.0 1017.4 0.0
 
Date/Time
EST
Temp
°C
App
Temp
°C
Dew
Point
Rel
Hum
%
Delta-T
°C
Wind Press
QNH
hPa
Press
MSL
hPa
Rain
since 9 am
mm
Dir
 
Spd
km/h
Gust
km/h
Spd
kts
Gust
kts
28/11:30pm 18.8 17.0 5.3 41 6.6 SE 4 4 2 2 1018.2 1017.6 0.0
28/11:00pm 19.1 16.9 6.2 43 6.4 S 7 9 4 5 1018.5 1017.9 0.0
28/10:30pm 19.9 17.8 5.9 40 7.0 SSE 6 7 3 4 1018.5 1017.9 0.0
28/10:00pm 20.4 18.6 5.2 37 7.5 ESE 4 6 2 3 1018.3 1017.7 0.0
28/09:30pm 20.8 18.6 5.2 36 7.7 SSE 6 9 3 5 1018.2 1017.6 0.0
28/09:00pm 23.0 21.0 7.1 36 8.3 E 7 9 4 5 1017.9 1017.3 0.0
28/08:30pm 23.7 21.9 7.3 35 8.6 ESE 6 6 3 3 1017.5 1017.0 0.0
28/08:00pm 23.9 22.4 6.7 33 8.9 ESE 4 6 2 3 1017.2 1016.7 0.0
28/07:30pm 25.0 23.2 7.2 32 9.4 SE 6 7 3 4 1016.9 1016.4 0.0
28/07:00pm 26.1 24.1 7.2 30 10.1 SE 7 9 4 5 1016.7 1016.2 0.0
28/06:30pm 28.1 26.5 7.9 28 11.0 S 6 11 3 6 1016.4 1015.9 0.0
28/06:00pm 30.1 28.5 7.9 25 12.2 SSE 6 6 3 3 1016.1 1015.6 0.0
28/05:30pm 31.3 29.8 8.3 24 12.8 SE 6 11 3 6 1015.8 1015.3 0.0
28/05:00pm 32.6 32.3 8.8 23 13.5 CALM 0 2 0 1 1015.7 1015.2 0.0
28/04:30pm 32.0 30.5 8.3 23 13.3 ESE 6 9 3 5 1015.3 1014.8 0.0
28/04:00pm 32.2 30.6 7.8 22 13.5 ESE 6 9 3 5 1015.3 1014.8 0.0
28/03:30pm 32.0 30.6 8.9 24 13.0 ESE 6 13 3 7 1015.4 1014.9 0.0
28/03:00pm 32.5 31.2 9.3 24 13.2 NNE 6 11 3 6 1015.6 1015.1 0.0
28/02:30pm 31.6 30.0 8.6 24 12.9 NE 7 15 4 8 1015.9 1015.4 0.0
28/02:00pm 32.0 30.7 10.1 26 12.6 ENE 7 17 4 9 1016.1 1015.6 0.0
28/01:30pm 31.4 30.3 10.7 28 12.0 NNE 7 17 4 9 1016.5 1016.0 0.0
28/01:00pm 31.0 29.8 10.4 28 11.8 NNE 7 15 4 8 1017.2 1016.7 0.0
28/12:30pm 30.1 27.6 11.1 31 11.0 NE 15 22 8 12 1017.7 1017.2 0.0
28/12:00pm 29.7 28.1 11.7 33 10.5 NE 11 20 6 11 1018.0 1017.4 0.0
28/11:30am 29.3 26.6 11.8 34 10.2 ENE 17 24 9 13 1018.4 1017.8 0.0
28/11:00am 28.6 25.9 11.6 34 9.9 NE 17 28 9 15 1018.6 1018.1 0.0
28/10:30am 27.9 25.3 11.9 37 9.3 NE 17 22 9 12 1018.8 1018.3 0.0
28/10:00am 27.1 23.8 11.6 38 8.9 ENE 20 26 11 14 1018.9 1018.4 0.0
28/09:30am 25.5 22.6 9.7 37 8.8 ENE 15 20 8 11 1018.9 1018.4 0.0
28/09:00am 23.9 21.7 9.5 40 7.9 E 11 19 6 10 1018.7 1018.2 0.0
28/08:59am 23.7 21.6 9.7 41 7.7 E 11 19 6 10 1018.8 1018.3 0.0
28/08:30am 18.5 16.5 6.4 45 6.1 ESE 6 7 3 4 1018.7 1018.2 0.0
28/08:00am 15.4 13.1 5.0 50 4.9 SE 6 7 3 4 1018.5 1017.9 0.0
28/07:30am 12.5 9.8 3.5 54 4.1 SE 7 11 4 6 1018.3 1017.7 0.0
28/07:00am 12.2 9.3 2.4 51 4.3 ESE 7 7 4 4 1017.9 1017.3 0.0
28/06:30am 13.2 10.5 3.8 53 4.3 ESE 7 7 4 4 1017.5 1017.0 0.0
28/06:00am 13.2 10.6 4.1 54 4.2 SE 7 7 4 4 1017.5 1017.0 0.0
28/05:30am 13.4 10.8 4.0 53 4.3 SE 7 7 4 4 1017.2 1016.7 0.0
28/05:00am 13.9 11.4 3.9 51 4.6 SE 6 7 3 4 1017.1 1016.6 0.0
28/04:30am 13.6 10.6 1.9 45 5.1 E 7 7 4 4 1017.0 1016.5 0.0
28/04:00am 14.4 11.3 3.5 48 5.0 ESE 9 9 5 5 1016.9 1016.4 0.0
28/03:30am 14.8 12.3 3.9 48 5.0 ESE 6 7 3 4 1016.9 1016.4 0.0
28/03:00am 14.8 12.2 3.3 46 5.2 ESE 6 6 3 3 1017.1 1016.6 0.0
28/02:30am 15.2 12.5 3.7 46 5.3 SE 7 7 4 4 1017.2 1016.7 0.0
28/02:00am 15.2 12.4 3.0 44 5.5 SE 7 7 4 4 1017.5 1017.0 0.0
28/01:30am 15.8 13.0 3.3 43 5.8 SE 7 7 4 4 1017.3 1016.8 0.0
28/01:00am 16.0 13.1 2.8 41 6.0 SE 7 7 4 4 1017.4 1016.9 0.0
28/12:30am 16.8 14.1 3.5 41 6.2 SE 7 7 4 4 1017.4 1016.9 0.0
28/12:00am 16.7 13.9 2.3 38 6.5 SE 6 7 3 4 1017.5 1017.0 0.0
 
Date/Time
EST
Temp
°C
App
Temp
°C
Dew
Point
Rel
Hum
%
Delta-T
°C
Wind Press
QNH
hPa
Press
MSL
hPa
Rain
since 9 am
mm
Dir
 
Spd
km/h
Gust
km/h
Spd
kts
Gust
kts
27/11:30pm 17.8 15.0 3.3 38 6.8 SE 7 7 4 4 1017.4 1016.9 0.0
27/11:00pm 18.3 15.6 3.8 38 6.9 SE 7 9 4 5 1017.9 1017.3 0.0
27/10:30pm 19.1 16.7 4.5 38 7.1 SE 6 7 3 4 1017.6 1017.1 0.0
27/10:00pm 19.6 17.0 4.1 36 7.5 SE 7 7 4 4 1017.9 1017.3 0.0
27/09:30pm 20.7 17.4 4.7 35 7.9 SE 11 11 6 6 1017.6 1017.1 0.0
27/09:00pm 21.6 19.1 4.7 33 8.3 SE 7 9 4 5 1017.6 1017.1 0.0
27/08:30pm 22.9 19.7 4.9 31 9.0 SE 11 13 6 7 1017.2 1016.7 0.0
27/08:00pm 23.3 20.0 4.8 30 9.3 SE 11 13 6 7 1016.7 1016.2 0.0
27/07:30pm 24.0 20.8 4.9 29 9.6 SSE 11 13 6 7 1016.5 1016.0 0.0
27/07:00pm 25.0 22.1 4.7 27 10.3 SE 9 11 5 6 1016.2 1015.7 0.0
27/06:30pm 27.5 24.3 5.1 24 11.6 SE 11 15 6 8 1015.8 1015.3 0.0
27/06:00pm 29.3 26.3 6.0 23 12.4 SE 11 17 6 9 1015.6 1015.1 0.0
27/05:30pm 30.7 27.3 5.9 21 13.3 ESE 13 22 7 12 1015.3 1014.8 0.0
27/05:00pm 31.2 27.4 5.6 20 13.6 SE 15 24 8 13 1015.2 1014.7 0.0
27/04:30pm 31.5 27.7 5.8 20 13.8 SE 15 28 8 15 1015.1 1014.6 0.0
27/04:00pm 31.5 27.3 5.8 20 13.8 ESE 17 28 9 15 1015.0 1014.5 0.0
27/03:30pm 31.6 28.2 5.9 20 13.8 ESE 13 28 7 15 1015.3 1014.8 0.0
27/03:00pm 31.4 27.2 5.8 20 13.7 SE 17 22 9 12 1015.7 1015.2 0.0
27/02:30pm 31.3 27.9 5.7 20 13.7 ESE 13 22 7 12 1016.1 1015.6 0.0
27/02:00pm 31.3 28.4 6.4 21 13.4 ENE 11 20 6 11 1016.5 1016.0 0.0
27/01:30pm 30.5 27.1 7.7 24 12.5 ESE 15 24 8 13 1016.9 1016.4 0.0
27/01:00pm 30.3 28.4 9.2 27 11.9 ESE 9 20 5 11 1017.5 1017.0 0.0
27/12:30pm 29.6 26.7 9.7 29 11.3 E 15 22 8 12 1018.3 1017.7 0.0
27/12:00pm 29.3 26.5 9.9 30 11.0 E 15 26 8 14 1019.0 1018.5 0.0
27/11:30am 28.9 25.2 9.6 30 10.9 E 19 26 10 14 1019.6 1019.1 0.0
27/11:00am 28.1 23.9 9.9 32 10.2 ENE 22 28 12 15 1020.0 1019.5 0.0
27/10:30am 27.3 24.1 10.1 34 9.7 ENE 17 24 9 13 1020.4 1019.9 0.0
27/10:00am 25.7 21.5 9.9 37 8.8 ENE 22 28 12 15 1020.2 1019.7 0.0
27/09:30am 24.3 21.1 9.8 40 8.0 ENE 17 24 9 13 1020.2 1019.7 0.0
27/09:00am 21.5 20.0 9.1 45 6.6 E 7 11 4 6 1020.1 1019.6 0.0
27/08:30am 17.9 16.2 7.6 51 5.3 SE 6 7 3 4 1020.0 1019.5 0.0
27/08:00am 14.8 12.8 6.1 56 4.2 ESE 6 6 3 3 1019.9 1019.4 0.0
27/07:30am 12.4 9.9 4.9 60 3.5 ESE 7 9 4 5 1019.8 1019.3 0.0
27/07:00am 12.6 10.3 4.8 59 3.6 ESE 6 6 3 3 1019.6 1019.1 0.0
27/06:30am 13.2 10.9 5.6 60 3.6 ESE 7 7 4 4 1019.4 1018.9 0.0
27/06:00am 13.1 10.7 5.3 59 3.7 ESE 7 9 4 5 1019.4 1018.9 0.0
27/05:30am 14.0 11.8 6.1 59 3.8 SE 7 7 4 4 1019.1 1018.6 0.0
27/05:00am 14.3 12.4 6.6 60 3.7 SSE 6 6 3 3 1019.1 1018.6 0.0
27/04:30am 14.4 12.1 5.5 55 4.2 SE 7 7 4 4 1019.2 1018.7 0.0
27/04:00am 15.1 13.0 6.7 57 4.1 SE 7 7 4 4 1019.2 1018.7 0.0
27/03:30am 15.7 13.9 7.0 56 4.3 SE 6 6 3 3 1019.1 1018.6 0.0
27/03:00am 16.4 14.6 7.1 54 4.6 ESE 6 7 3 4 1019.1 1018.6 0.0
27/02:30am 16.7 14.7 7.1 53 4.8 SE 7 9 4 5 1019.2 1018.7 0.0
27/02:00am 17.1 15.1 7.2 52 5.0 SE 7 9 4 5 1019.3 1018.8 0.0
27/01:30am 17.5 15.1 7.0 50 5.3 ESE 9 9 5 5 1019.4 1018.9 0.0
27/01:00am 18.2 15.9 7.3 49 5.5 SE 9 9 5 5 1019.5 1019.0 0.0
27/12:30am 19.2 16.9 7.6 47 6.0 SE 9 11 5 6 1019.5 1019.0 0.0
27/12:00am 19.6 17.3 7.4 45 6.3 SE 9 11 5 6 1019.8 1019.3 0.0
 
Date/Time
EST
Temp
°C
App
Temp
°C
Dew
Point
Rel
Hum
%
Delta-T
°C
Wind Press
QNH
hPa
Press
MSL
hPa
Rain
since 9 am
mm
Dir
 
Spd
km/h
Gust
km/h
Spd
kts
Gust
kts
26/11:30pm 20.8 18.2 7.8 43 6.8 SE 11 13 6 7 1020.0 1019.5 0.0
26/11:00pm 21.9 18.9 7.7 40 7.4 SE 13 17 7 9 1020.0 1019.5 0.0
26/10:30pm 22.2 19.6 7.6 39 7.7 SE 11 15 6 8 1020.1 1019.6 0.0
26/10:00pm 22.6 19.6 7.6 38 7.9 SE 13 17 7 9 1019.9 1019.4 0.0
26/09:30pm 22.4 19.7 7.4 38 7.8 SE 11 13 6 7 1019.9 1019.4 0.0
26/09:00pm 22.4 19.7 7.4 38 7.8 SSE 11 13 6 7 1019.9 1019.4 0.0
26/08:30pm 22.0 19.5 6.7 37 7.9 SE 9 11 5 6 1019.7 1019.2 0.0
26/08:00pm 23.0 20.5 6.7 35 8.4 SE 9 11 5 6 1019.2 1018.7 0.0
26/07:30pm 24.2 21.9 7.4 34 8.9 SE 9 11 5 6 1018.9 1018.4 0.0
26/07:00pm 25.8 23.1 7.4 31 9.8 SE 11 13 6 7 1018.3 1017.7 0.0
26/06:30pm 27.6 24.6 7.5 28 10.8 SE 13 17 7 9 1018.0 1017.4 0.0
26/06:00pm 29.2 26.3 8.3 27 11.5 SE 13 17 7 9 1017.7 1017.2 0.0
26/05:30pm 30.2 26.9 8.0 25 12.3 SE 15 22 8 12 1017.5 1017.0 0.0
26/05:00pm 31.0 27.7 8.1 24 12.7 SE 15 20 8 11 1017.2 1016.7 0.0
26/04:30pm 31.0 27.9 8.7 25 12.5 ESE 15 20 8 11 1017.2 1016.7 0.0
26/04:00pm 31.2 27.9 8.2 24 12.8 SSE 15 20 8 11 1017.1 1016.6 0.0
26/03:30pm 31.4 28.7 9.0 25 12.6 ESE 13 19 7 10 1017.3 1016.8 0.0
26/03:00pm 30.9 29.0 9.2 26 12.2 ENE 9 20 5 11 1017.7 1017.2 0.0
26/02:30pm 30.7 29.3 9.6 27 12.0 SSW 7 15 4 8 1018.1 1017.5 0.0
26/02:00pm 30.6 29.2 9.5 27 11.9 SSE 7 15 4 8 1018.7 1018.2 0.0
26/01:30pm 30.9 29.5 9.7 27 12.1 ENE 7 13 4 7 1019.2 1018.7 0.0
26/01:00pm 29.8 27.7 9.9 29 11.3 E 11 19 6 10 1019.7 1019.2 0.0
26/12:30pm 29.9 27.8 9.9 29 11.4 ENE 11 19 6 10 1020.1 1019.6 0.0
26/12:00pm 29.8 28.0 10.9 31 10.9 NE 11 22 6 12 1020.5 1020.0 0.0
26/11:30am 29.3 26.5 11.4 33 10.4 NE 17 20 9 11 1021.0 1020.5 0.0
26/11:00am 28.5 25.4 11.6 35 9.8 NE 19 24 10 13 1021.4 1020.9 0.0
26/10:30am 27.1 24.4 11.6 38 8.9 NE 17 22 9 12 1021.9 1021.4 0.0
26/10:00am 25.6 22.7 11.0 40 8.3 NE 17 24 9 13 1022.0 1021.5 0.0
26/09:30am 23.6 21.6 10.3 43 7.4 ENE 11 19 6 10 1022.0 1021.5 0.0
26/09:00am 20.8 19.3 8.4 45 6.5 E 6 9 3 5 1022.1 1021.6 0.0

Other Formats:

Comma delimited format used in spreadsheet applications
http://www.bom.gov.au/fwo/IDQ60801/IDQ60801.94344.axf

JavaScript Object Notation format (JSON) in row-major order
http://www.bom.gov.au/fwo/IDQ60801/IDQ60801.94344.json